sensor_id;sensor_type;location;lat;lon;timestamp;pressure;altitude;pressure_sealevel;temperature;humidity
46408;BME280;32110;45.724;21.276;2024-03-06T00:01:39;100268.75;;;8.47;nan
46408;BME280;32110;45.724;21.276;2024-03-06T00:04:04;100267.16;;;8.46;nan
46408;BME280;32110;45.724;21.276;2024-03-06T00:06:30;100234.66;;;8.15;nan
46408;BME280;32110;45.724;21.276;2024-03-06T00:08:56;100266.84;;;8.29;nan
46408;BME280;32110;45.724;21.276;2024-03-06T00:11:21;100261.06;;;8.20;nan
46408;BME280;32110;45.724;21.276;2024-03-06T00:13:47;100266.56;;;8.12;nan
46408;BME280;32110;45.724;21.276;2024-03-06T00:16:13;100268.59;;;8.10;nan
46408;BME280;32110;45.724;21.276;2024-03-06T00:18:38;100266.41;;;8.07;nan
46408;BME280;32110;45.724;21.276;2024-03-06T00:21:05;100269.03;;;8.07;nan
46408;BME280;32110;45.724;21.276;2024-03-06T00:23:31;100252.56;;;7.93;nan
46408;BME280;32110;45.724;21.276;2024-03-06T00:25:56;100265.41;;;8.01;nan
46408;BME280;32110;45.724;21.276;2024-03-06T00:28:22;100259.41;;;7.94;nan
46408;BME280;32110;45.724;21.276;2024-03-06T00:30:47;100266.66;;;7.92;nan
46408;BME280;32110;45.724;21.276;2024-03-06T00:33:13;100272.94;;;7.91;nan
46408;BME280;32110;45.724;21.276;2024-03-06T00:35:38;100274.34;;;7.87;nan
46408;BME280;32110;45.724;21.276;2024-03-06T00:38:04;100269.13;;;7.80;nan
46408;BME280;32110;45.724;21.276;2024-03-06T00:40:29;100283.69;;;7.83;nan
46408;BME280;32110;45.724;21.276;2024-03-06T00:42:56;100270.19;;;7.73;nan
46408;BME280;32110;45.724;21.276;2024-03-06T00:45:22;100278.28;;;7.71;nan
46408;BME280;32110;45.724;21.276;2024-03-06T00:47:47;100288.38;;;7.67;nan
46408;BME280;32110;45.724;21.276;2024-03-06T00:50:13;100273.69;;;7.60;nan
46408;BME280;32110;45.724;21.276;2024-03-06T00:52:38;100275.50;;;7.59;nan
46408;BME280;32110;45.724;21.276;2024-03-06T00:55:04;100274.31;;;7.55;nan
46408;BME280;32110;45.724;21.276;2024-03-06T00:57:30;100259.47;;;7.42;nan
46408;BME280;32110;45.724;21.276;2024-03-06T00:59:56;100284.38;;;7.52;nan
46408;BME280;32110;45.724;21.276;2024-03-06T01:02:21;100277.97;;;7.48;nan
46408;BME280;32110;45.724;21.276;2024-03-06T01:04:47;100275.75;;;7.44;nan
46408;BME280;32110;45.724;21.276;2024-03-06T01:07:12;100260.88;;;7.38;nan
46408;BME280;32110;45.724;21.276;2024-03-06T01:09:38;100273.72;;;7.46;nan
46408;BME280;32110;45.724;21.276;2024-03-06T01:12:04;100252.41;;;7.36;nan
46408;BME280;32110;45.724;21.276;2024-03-06T01:14:30;100274.16;;;7.43;nan
46408;BME280;32110;45.724;21.276;2024-03-06T01:16:56;100273.13;;;7.44;nan
46408;BME280;32110;45.724;21.276;2024-03-06T01:19:22;100266.13;;;7.38;nan
46408;BME280;32110;45.724;21.276;2024-03-06T01:21:48;100262.50;;;7.33;nan
46408;BME280;32110;45.724;21.276;2024-03-06T01:24:14;100257.28;;;7.26;nan
46408;BME280;32110;45.724;21.276;2024-03-06T01:26:39;100268.75;;;7.25;nan
46408;BME280;32110;45.724;21.276;2024-03-06T01:29:06;100259.72;;;7.21;nan
46408;BME280;32110;45.724;21.276;2024-03-06T01:31:31;100265.34;;;7.18;nan
46408;BME280;32110;45.724;21.276;2024-03-06T01:33:56;100265.34;;;7.18;nan
46408;BME280;32110;45.724;21.276;2024-03-06T01:36:22;100269.78;;;7.17;nan
46408;BME280;32110;45.724;21.276;2024-03-06T01:38:47;100270.00;;;7.16;nan
46408;BME280;32110;45.724;21.276;2024-03-06T01:41:14;100263.34;;;7.13;nan
46408;BME280;32110;45.724;21.276;2024-03-06T01:43:39;100267.59;;;7.14;nan
46408;BME280;32110;45.724;21.276;2024-03-06T01:46:05;100254.94;;;7.05;nan
46408;BME280;32110;45.724;21.276;2024-03-06T01:48:31;100254.69;;;7.06;nan
46408;BME280;32110;45.724;21.276;2024-03-06T01:50:59;100260.56;;;7.01;nan
46408;BME280;32110;45.724;21.276;2024-03-06T01:53:29;100266.63;;;7.02;nan
46408;BME280;32110;45.724;21.276;2024-03-06T01:55:56;100278.09;;;7.01;nan
46408;BME280;32110;45.724;21.276;2024-03-06T01:58:23;100279.72;;;6.89;nan
46408;BME280;32110;45.724;21.276;2024-03-06T02:00:50;100288.19;;;6.84;nan
46408;BME280;32110;45.724;21.276;2024-03-06T02:03:15;100272.69;;;6.76;nan
46408;BME280;32110;45.724;21.276;2024-03-06T02:05:42;100279.94;;;6.74;nan
46408;BME280;32110;45.724;21.276;2024-03-06T02:08:08;100243.09;;;6.49;nan
46408;BME280;32110;45.724;21.276;2024-03-06T02:10:33;100269.47;;;6.67;nan
46408;BME280;32110;45.724;21.276;2024-03-06T02:12:59;100282.75;;;6.72;nan
46408;BME280;32110;45.724;21.276;2024-03-06T02:15:25;100278.72;;;6.70;nan
46408;BME280;32110;45.724;21.276;2024-03-06T02:17:51;100272.50;;;6.64;nan
46408;BME280;32110;45.724;21.276;2024-03-06T02:20:23;100283.16;;;6.69;nan
46408;BME280;32110;45.724;21.276;2024-03-06T02:22:50;100291.44;;;6.73;nan
46408;BME280;32110;45.724;21.276;2024-03-06T02:25:16;100290.81;;;6.71;nan
46408;BME280;32110;45.724;21.276;2024-03-06T02:27:43;100281.94;;;6.65;nan
46408;BME280;32110;45.724;21.276;2024-03-06T02:30:09;100269.06;;;6.57;nan
46408;BME280;32110;45.724;21.276;2024-03-06T02:32:36;100277.13;;;6.55;nan
46408;BME280;32110;45.724;21.276;2024-03-06T02:35:02;100288.19;;;6.57;nan
46408;BME280;32110;45.724;21.276;2024-03-06T02:37:34;100292.00;;;6.55;nan
46408;BME280;32110;45.724;21.276;2024-03-06T02:39:59;100292.19;;;6.53;nan
46408;BME280;32110;45.724;21.276;2024-03-06T02:42:27;100291.81;;;6.50;nan
46408;BME280;32110;45.724;21.276;2024-03-06T02:44:52;100293.63;;;6.49;nan
46408;BME280;32110;45.724;21.276;2024-03-06T02:47:18;100291.59;;;6.45;nan
46408;BME280;32110;45.724;21.276;2024-03-06T02:49:44;100289.97;;;6.44;nan
46408;BME280;32110;45.724;21.276;2024-03-06T02:52:10;100295.22;;;6.37;nan
46408;BME280;32110;45.724;21.276;2024-03-06T02:54:35;100310.91;;;6.44;nan
46408;BME280;32110;45.724;21.276;2024-03-06T02:57:01;100308.09;;;6.45;nan
46408;BME280;32110;45.724;21.276;2024-03-06T02:59:26;100309.91;;;6.45;nan
46408;BME280;32110;45.724;21.276;2024-03-06T03:01:52;100295.22;;;6.30;nan
46408;BME280;32110;45.724;21.276;2024-03-06T03:04:18;100306.88;;;6.34;nan
46408;BME280;32110;45.724;21.276;2024-03-06T03:06:44;100310.94;;;6.37;nan
46408;BME280;32110;45.724;21.276;2024-03-06T03:09:09;100242.88;;;5.97;nan
46408;BME280;32110;45.724;21.276;2024-03-06T03:11:37;100289.34;;;6.22;nan
46408;BME280;32110;45.724;21.276;2024-03-06T03:14:03;100297.63;;;6.25;nan
46408;BME280;32110;45.724;21.276;2024-03-06T03:16:28;100304.06;;;6.23;nan
46408;BME280;32110;45.724;21.276;2024-03-06T03:18:55;100293.78;;;6.14;nan
46408;BME280;32110;45.724;21.276;2024-03-06T03:21:20;100305.03;;;6.15;nan
46408;BME280;32110;45.724;21.276;2024-03-06T03:23:46;100301.00;;;6.12;nan
46408;BME280;32110;45.724;21.276;2024-03-06T03:26:12;100287.91;;;5.99;nan
46408;BME280;32110;45.724;21.276;2024-03-06T03:28:38;100302.19;;;6.03;nan
46408;BME280;32110;45.724;21.276;2024-03-06T03:31:08;100296.09;;;5.89;nan
46408;BME280;32110;45.724;21.276;2024-03-06T03:33:35;100299.69;;;5.88;nan
46408;BME280;32110;45.724;21.276;2024-03-06T03:36:04;100291.66;;;5.83;nan
46408;BME280;32110;45.724;21.276;2024-03-06T03:38:31;100314.19;;;5.91;nan
46408;BME280;32110;45.724;21.276;2024-03-06T03:40:56;100297.47;;;5.79;nan
46408;BME280;32110;45.724;21.276;2024-03-06T03:43:22;100309.72;;;5.78;nan
46408;BME280;32110;45.724;21.276;2024-03-06T03:45:47;100315.56;;;5.80;nan
46408;BME280;32110;45.724;21.276;2024-03-06T03:48:12;100319.16;;;5.72;nan
46408;BME280;32110;45.724;21.276;2024-03-06T03:50:38;100319.97;;;5.73;nan
46408;BME280;32110;45.724;21.276;2024-03-06T03:53:03;100279.25;;;5.44;nan
46408;BME280;32110;45.724;21.276;2024-03-06T03:55:29;100311.81;;;5.54;nan
46408;BME280;32110;45.724;21.276;2024-03-06T03:57:56;100322.47;;;5.53;nan
46408;BME280;32110;45.724;21.276;2024-03-06T04:00:22;100313.94;;;5.38;nan
46408;BME280;32110;45.724;21.276;2024-03-06T04:02:48;100321.50;;;5.26;nan
46408;BME280;32110;45.724;21.276;2024-03-06T04:05:13;100320.25;;;5.15;nan
46408;BME280;32110;45.724;21.276;2024-03-06T04:07:39;100335.91;;;5.15;nan
46408;BME280;32110;45.724;21.276;2024-03-06T04:10:06;100347.34;;;5.14;nan
46408;BME280;32110;45.724;21.276;2024-03-06T04:12:32;100342.13;;;5.14;nan
46408;BME280;32110;45.724;21.276;2024-03-06T07:14:49;100448.16;;;6.48;nan
46408;BME280;32110;45.724;21.276;2024-03-06T08:30:06;100428.34;;;8.12;nan
46408;BME280;32110;45.724;21.276;2024-03-06T08:32:33;100455.69;;;8.42;nan
46408;BME280;32110;45.724;21.276;2024-03-06T08:35:04;100453.47;;;8.46;nan
46408;BME280;32110;45.724;21.276;2024-03-06T08:37:32;100437.91;;;8.38;nan
46408;BME280;32110;45.724;21.276;2024-03-06T08:40:02;100458.84;;;8.64;nan
46408;BME280;32110;45.724;21.276;2024-03-06T08:42:28;100465.44;;;8.73;nan
46408;BME280;32110;45.724;21.276;2024-03-06T08:44:53;100463.16;;;8.84;nan
46408;BME280;32110;45.724;21.276;2024-03-06T08:47:19;100459.47;;;8.91;nan
46408;BME280;32110;45.724;21.276;2024-03-06T08:49:44;100464.84;;;9.03;nan
46408;BME280;32110;45.724;21.276;2024-03-06T08:52:10;100457.94;;;9.09;nan
46408;BME280;32110;45.724;21.276;2024-03-06T08:54:36;100463.91;;;9.23;nan
46408;BME280;32110;45.724;21.276;2024-03-06T08:57:03;100456.56;;;9.31;nan
46408;BME280;32110;45.724;21.276;2024-03-06T08:59:29;100451.88;;;9.33;nan
46408;BME280;32110;45.724;21.276;2024-03-06T09:01:54;100450.59;;;9.43;nan
46408;BME280;32110;45.724;21.276;2024-03-06T09:04:21;100457.19;;;9.52;nan
46408;BME280;32110;45.724;21.276;2024-03-06T09:06:46;100473.06;;;9.64;nan
46408;BME280;32110;45.724;21.276;2024-03-06T09:09:12;100460.75;;;9.57;nan
46408;BME280;32110;45.724;21.276;2024-03-06T09:11:40;100463.94;;;9.66;nan
46408;BME280;32110;45.724;21.276;2024-03-06T09:14:07;100454.28;;;9.60;nan
46408;BME280;32110;45.724;21.276;2024-03-06T09:16:34;100459.69;;;9.65;nan
46408;BME280;32110;45.724;21.276;2024-03-06T09:19:00;100454.44;;;9.65;nan
46408;BME280;32110;45.724;21.276;2024-03-06T09:21:25;100467.69;;;9.77;nan
46408;BME280;32110;45.724;21.276;2024-03-06T09:23:51;100472.06;;;9.83;nan
46408;BME280;32110;45.724;21.276;2024-03-06T09:26:17;100448.81;;;9.80;nan
46408;BME280;32110;45.724;21.276;2024-03-06T09:28:42;100458.53;;;9.98;nan
46408;BME280;32110;45.724;21.276;2024-03-06T09:31:08;100451.50;;;10.10;nan
46408;BME280;32110;45.724;21.276;2024-03-06T09:33:33;100446.31;;;10.22;nan
46408;BME280;32110;45.724;21.276;2024-03-06T09:35:59;100411.97;;;10.17;nan
46408;BME280;32110;45.724;21.276;2024-03-06T09:38:25;100375.75;;;10.00;nan
46408;BME280;32110;45.724;21.276;2024-03-06T09:40:50;100459.50;;;10.71;nan
46408;BME280;32110;45.724;21.276;2024-03-06T09:43:17;100441.78;;;10.78;nan
46408;BME280;32110;45.724;21.276;2024-03-06T09:45:48;100438.72;;;10.93;nan
46408;BME280;32110;45.724;21.276;2024-03-06T09:48:13;100449.63;;;11.08;nan
46408;BME280;32110;45.724;21.276;2024-03-06T09:50:42;100444.03;;;11.16;nan
46408;BME280;32110;45.724;21.276;2024-03-06T09:53:12;100440.84;;;11.26;nan
46408;BME280;32110;45.724;21.276;2024-03-06T09:55:40;100448.28;;;11.41;nan
46408;BME280;32110;45.724;21.276;2024-03-06T09:58:07;100434.88;;;11.42;nan
46408;BME280;32110;45.724;21.276;2024-03-06T10:00:37;100448.41;;;11.58;nan
46408;BME280;32110;45.724;21.276;2024-03-06T10:03:03;100440.38;;;11.64;nan
46408;BME280;32110;45.724;21.276;2024-03-06T10:05:31;100447.94;;;11.73;nan
46408;BME280;32110;45.724;21.276;2024-03-06T10:07:59;100436.56;;;11.72;nan
46408;BME280;32110;45.724;21.276;2024-03-06T10:10:26;100448.16;;;11.83;nan
46408;BME280;32110;45.724;21.276;2024-03-06T10:12:52;100447.25;;;11.89;nan
46408;BME280;32110;45.724;21.276;2024-03-06T10:15:18;100440.56;;;11.86;nan
46408;BME280;32110;45.724;21.276;2024-03-06T10:17:44;100426.94;;;11.89;nan
46408;BME280;32110;45.724;21.276;2024-03-06T10:20:21;100443.69;;;12.07;nan
46408;BME280;32110;45.724;21.276;2024-03-06T10:22:52;100446.41;;;12.12;nan
46408;BME280;32110;45.724;21.276;2024-03-06T10:25:22;100437.22;;;12.15;nan
46408;BME280;32110;45.724;21.276;2024-03-06T10:28:10;100440.63;;;12.27;nan
46408;BME280;32110;45.724;21.276;2024-03-06T10:30:40;100430.06;;;12.27;nan
46408;BME280;32110;45.724;21.276;2024-03-06T10:33:09;100424.31;;;12.30;nan
46408;BME280;32110;45.724;21.276;2024-03-06T10:35:35;100445.16;;;12.43;nan
46408;BME280;32110;45.724;21.276;2024-03-06T10:38:04;100442.38;;;12.50;nan
46408;BME280;32110;45.724;21.276;2024-03-06T10:40:35;100434.88;;;12.59;nan
46408;BME280;32110;45.724;21.276;2024-03-06T10:43:02;100429.91;;;12.62;nan
46408;BME280;32110;45.724;21.276;2024-03-06T10:45:50;100424.59;;;12.74;nan
46408;BME280;32110;45.724;21.276;2024-03-06T10:48:19;100425.94;;;12.76;nan
46408;BME280;32110;45.724;21.276;2024-03-06T10:50:46;100421.06;;;12.85;nan
46408;BME280;32110;45.724;21.276;2024-03-06T10:53:13;100420.03;;;12.86;nan
46408;BME280;32110;45.724;21.276;2024-03-06T10:55:40;100422.75;;;12.91;nan
46408;BME280;32110;45.724;21.276;2024-03-06T10:58:07;100419.63;;;12.94;nan
46408;BME280;32110;45.724;21.276;2024-03-06T11:00:40;100415.53;;;13.04;nan
46408;BME280;32110;45.724;21.276;2024-03-06T11:03:07;100401.19;;;12.99;nan
46408;BME280;32110;45.724;21.276;2024-03-06T11:05:36;100398.53;;;13.16;nan
46408;BME280;32110;45.724;21.276;2024-03-06T11:08:06;100398.31;;;13.18;nan
46408;BME280;32110;45.724;21.276;2024-03-06T11:10:37;100401.19;;;13.33;nan
46408;BME280;32110;45.724;21.276;2024-03-06T11:13:04;100401.03;;;13.40;nan
46408;BME280;32110;45.724;21.276;2024-03-06T11:15:33;100366.75;;;13.28;nan
46408;BME280;32110;45.724;21.276;2024-03-06T11:23:34;100395.59;;;13.69;nan
46408;BME280;32110;45.724;21.276;2024-03-06T11:26:04;100385.78;;;13.69;nan
46408;BME280;32110;45.724;21.276;2024-03-06T11:28:30;100393.44;;;13.88;nan
46408;BME280;32110;45.724;21.276;2024-03-06T11:33:34;100391.97;;;13.97;nan
46408;BME280;32110;45.724;21.276;2024-03-06T11:36:23;100382.22;;;14.02;nan
46408;BME280;32110;45.724;21.276;2024-03-06T11:41:20;100368.88;;;13.92;nan
46408;BME280;32110;45.724;21.276;2024-03-06T11:43:48;100373.53;;;14.07;nan
46408;BME280;32110;45.724;21.276;2024-03-06T11:46:15;100352.94;;;13.87;nan
46408;BME280;32110;45.724;21.276;2024-03-06T11:48:43;100375.06;;;14.03;nan
46408;BME280;32110;45.724;21.276;2024-03-06T11:51:09;100367.75;;;14.10;nan
46408;BME280;32110;45.724;21.276;2024-03-06T11:53:34;100349.19;;;14.10;nan
46408;BME280;32110;45.724;21.276;2024-03-06T11:56:06;100341.03;;;14.12;nan
46408;BME280;32110;45.724;21.276;2024-03-06T11:58:32;100348.25;;;14.21;nan
46408;BME280;32110;45.724;21.276;2024-03-06T12:00:58;100336.84;;;14.16;nan
46408;BME280;32110;45.724;21.276;2024-03-06T12:03:23;100352.66;;;14.38;nan
46408;BME280;32110;45.724;21.276;2024-03-06T12:05:50;100354.31;;;14.44;nan
46408;BME280;32110;45.724;21.276;2024-03-06T12:08:17;100297.38;;;14.19;nan
46408;BME280;32110;45.724;21.276;2024-03-06T12:10:42;100344.19;;;14.63;nan
46408;BME280;32110;45.724;21.276;2024-03-06T12:13:08;100336.50;;;14.66;nan
46408;BME280;32110;45.724;21.276;2024-03-06T12:15:33;100330.94;;;14.63;nan
46408;BME280;32110;45.724;21.276;2024-03-06T12:18:01;100339.75;;;14.74;nan
46408;BME280;32110;45.724;21.276;2024-03-06T12:20:26;100328.94;;;14.80;nan
46408;BME280;32110;45.724;21.276;2024-03-06T12:22:53;100321.81;;;14.86;nan
46408;BME280;32110;45.724;21.276;2024-03-06T12:25:27;100318.13;;;14.87;nan
46408;BME280;32110;45.724;21.276;2024-03-06T12:27:54;100319.47;;;14.95;nan
46408;BME280;32110;45.724;21.276;2024-03-06T12:30:21;100309.91;;;14.94;nan
46408;BME280;32110;45.724;21.276;2024-03-06T12:33:00;100323.53;;;15.07;nan
46408;BME280;32110;45.724;21.276;2024-03-06T12:35:30;100303.06;;;15.03;nan
46408;BME280;32110;45.724;21.276;2024-03-06T12:37:55;100318.00;;;15.14;nan
46408;BME280;32110;45.724;21.276;2024-03-06T12:40:21;100308.19;;;15.15;nan
46408;BME280;32110;45.724;21.276;2024-03-06T12:42:47;100302.09;;;15.14;nan
46408;BME280;32110;45.724;21.276;2024-03-06T12:45:15;100289.06;;;15.07;nan
46408;BME280;32110;45.724;21.276;2024-03-06T12:47:45;100297.88;;;15.18;nan
46408;BME280;32110;45.724;21.276;2024-03-06T12:50:13;100303.69;;;15.20;nan
46408;BME280;32110;45.724;21.276;2024-03-06T12:52:38;100300.03;;;15.26;nan
46408;BME280;32110;45.724;21.276;2024-03-06T12:55:04;100298.94;;;15.27;nan
46408;BME280;32110;45.724;21.276;2024-03-06T12:57:33;100282.47;;;15.20;nan
46408;BME280;32110;45.724;21.276;2024-03-06T12:59:59;100291.28;;;15.26;nan
46408;BME280;32110;45.724;21.276;2024-03-06T13:02:25;100285.75;;;15.32;nan
46408;BME280;32110;45.724;21.276;2024-03-06T13:04:52;100289.19;;;15.33;nan
46408;BME280;32110;45.724;21.276;2024-03-06T13:07:18;100287.63;;;15.37;nan
46408;BME280;32110;45.724;21.276;2024-03-06T13:09:44;100284.41;;;15.30;nan
46408;BME280;32110;45.724;21.276;2024-03-06T13:12:09;100269.50;;;15.24;nan
46408;BME280;32110;45.724;21.276;2024-03-06T13:14:35;100271.94;;;15.36;nan
46408;BME280;32110;45.724;21.276;2024-03-06T13:17:01;100280.44;;;15.38;nan
46408;BME280;32110;45.724;21.276;2024-03-06T13:19:27;100267.97;;;15.38;nan
46408;BME280;32110;45.724;21.276;2024-03-06T13:21:53;100276.25;;;15.47;nan
46408;BME280;32110;45.724;21.276;2024-03-06T13:24:19;100274.91;;;15.49;nan
46408;BME280;32110;45.724;21.276;2024-03-06T13:26:47;100267.47;;;15.46;nan
46408;BME280;32110;45.724;21.276;2024-03-06T13:29:13;100279.16;;;15.50;nan
46408;BME280;32110;45.724;21.276;2024-03-06T13:31:39;100277.06;;;15.58;nan
46408;BME280;32110;45.724;21.276;2024-03-06T13:34:05;100261.13;;;15.52;nan
46408;BME280;32110;45.724;21.276;2024-03-06T13:36:30;100261.44;;;15.61;nan
46408;BME280;32110;45.724;21.276;2024-03-06T13:38:56;100253.97;;;15.58;nan
46408;BME280;32110;45.724;21.276;2024-03-06T13:41:22;100263.00;;;15.67;nan
46408;BME280;32110;45.724;21.276;2024-03-06T13:43:48;100249.19;;;15.65;nan
46408;BME280;32110;45.724;21.276;2024-03-06T13:46:14;100238.59;;;15.65;nan
46408;BME280;32110;45.724;21.276;2024-03-06T13:48:40;100257.50;;;15.79;nan
46408;BME280;32110;45.724;21.276;2024-03-06T13:51:05;100244.75;;;15.76;nan
46408;BME280;32110;45.724;21.276;2024-03-06T13:53:31;100241.56;;;15.74;nan
46408;BME280;32110;45.724;21.276;2024-03-06T13:55:57;100239.69;;;15.74;nan
46408;BME280;32110;45.724;21.276;2024-03-06T13:58:22;100236.00;;;15.76;nan
46408;BME280;32110;45.724;21.276;2024-03-06T14:00:48;100238.38;;;15.77;nan
46408;BME280;32110;45.724;21.276;2024-03-06T14:03:14;100237.34;;;15.83;nan
46408;BME280;32110;45.724;21.276;2024-03-06T14:05:39;100237.06;;;15.85;nan
46408;BME280;32110;45.724;21.276;2024-03-06T14:08:05;100230.94;;;15.84;nan
46408;BME280;32110;45.724;21.276;2024-03-06T14:10:31;100223.81;;;15.90;nan
46408;BME280;32110;45.724;21.276;2024-03-06T14:13:00;100227.50;;;15.94;nan
46408;BME280;32110;45.724;21.276;2024-03-06T14:15:26;100221.94;;;15.95;nan
46408;BME280;32110;45.724;21.276;2024-03-06T14:17:53;100208.13;;;15.93;nan
46408;BME280;32110;45.724;21.276;2024-03-06T14:20:20;100212.38;;;15.94;nan
46408;BME280;32110;45.724;21.276;2024-03-06T14:22:45;100207.59;;;15.97;nan
46408;BME280;32110;45.724;21.276;2024-03-06T14:25:11;100211.84;;;16.03;nan
46408;BME280;32110;45.724;21.276;2024-03-06T14:27:37;100208.66;;;16.01;nan
46408;BME280;32110;45.724;21.276;2024-03-06T14:30:04;100221.16;;;16.05;nan
46408;BME280;32110;45.724;21.276;2024-03-06T14:32:29;100219.81;;;16.03;nan
46408;BME280;32110;45.724;21.276;2024-03-06T14:34:55;100202.28;;;15.91;nan
46408;BME280;32110;45.724;21.276;2024-03-06T14:37:20;100209.72;;;15.94;nan
46408;BME280;32110;45.724;21.276;2024-03-06T14:39:46;100185.28;;;15.77;nan
46408;BME280;32110;45.724;21.276;2024-03-06T14:42:12;100206.81;;;15.91;nan
46408;BME280;32110;45.724;21.276;2024-03-06T14:44:37;100203.88;;;15.87;nan
46408;BME280;32110;45.724;21.276;2024-03-06T14:47:03;100207.59;;;15.91;nan
46408;BME280;32110;45.724;21.276;2024-03-06T14:49:28;100209.19;;;15.92;nan
46408;BME280;32110;45.724;21.276;2024-03-06T14:51:54;100216.09;;;15.93;nan
46408;BME280;32110;45.724;21.276;2024-03-06T14:54:21;100188.22;;;15.76;nan
46408;BME280;32110;45.724;21.276;2024-03-06T14:56:48;100258.88;;;16.17;nan
46408;BME280;32110;45.724;21.276;2024-03-06T14:59:13;100192.94;;;15.68;nan
46408;BME280;32110;45.724;21.276;2024-03-06T15:01:39;100213.69;;;15.77;nan
46408;BME280;32110;45.724;21.276;2024-03-06T15:04:04;100204.94;;;15.71;nan
46408;BME280;32110;45.724;21.276;2024-03-06T15:06:30;100199.59;;;15.66;nan
46408;BME280;32110;45.724;21.276;2024-03-06T15:08:55;100204.63;;;15.62;nan
46408;BME280;32110;45.724;21.276;2024-03-06T15:11:21;100196.88;;;15.50;nan
46408;BME280;32110;45.724;21.276;2024-03-06T15:13:48;100196.59;;;15.42;nan
46408;BME280;32110;45.724;21.276;2024-03-06T15:16:14;100194.47;;;15.39;nan
46408;BME280;32110;45.724;21.276;2024-03-06T15:18:40;100182.22;;;15.22;nan
46408;BME280;32110;45.724;21.276;2024-03-06T15:21:06;100190.44;;;15.16;nan
46408;BME280;32110;45.724;21.276;2024-03-06T15:23:31;100192.50;;;15.03;nan
46408;BME280;32110;45.724;21.276;2024-03-06T15:25:58;100194.34;;;14.98;nan
46408;BME280;32110;45.724;21.276;2024-03-06T15:28:24;100199.31;;;14.84;nan
46408;BME280;32110;45.724;21.276;2024-03-06T15:30:49;100185.19;;;14.68;nan
46408;BME280;32110;45.724;21.276;2024-03-06T15:33:15;100197.09;;;14.65;nan
46408;BME280;32110;45.724;21.276;2024-03-06T15:35:41;100194.66;;;14.54;nan
46408;BME280;32110;45.724;21.276;2024-03-06T15:38:06;100197.50;;;14.47;nan
46408;BME280;32110;45.724;21.276;2024-03-06T15:40:32;100205.41;;;14.42;nan
46408;BME280;32110;45.724;21.276;2024-03-06T15:42:57;100206.97;;;14.38;nan
46408;BME280;32110;45.724;21.276;2024-03-06T15:45:23;100209.81;;;14.31;nan
46408;BME280;32110;45.724;21.276;2024-03-06T15:47:49;100188.22;;;14.12;nan
46408;BME280;32110;45.724;21.276;2024-03-06T15:50:14;100210.31;;;14.23;nan
46408;BME280;32110;45.724;21.276;2024-03-06T15:52:40;100212.41;;;14.21;nan
46408;BME280;32110;45.724;21.276;2024-03-06T15:55:06;100206.53;;;14.14;nan
46408;BME280;32110;45.724;21.276;2024-03-06T15:57:32;100212.63;;;14.14;nan
46408;BME280;32110;45.724;21.276;2024-03-06T15:59:57;100204.88;;;14.08;nan
46408;BME280;32110;45.724;21.276;2024-03-06T16:02:23;100215.78;;;14.11;nan
46408;BME280;32110;45.724;21.276;2024-03-06T16:04:51;100229.00;;;14.11;nan
46408;BME280;32110;45.724;21.276;2024-03-06T16:07:17;100206.66;;;13.97;nan
46408;BME280;32110;45.724;21.276;2024-03-06T16:09:43;100214.34;;;13.98;nan
46408;BME280;32110;45.724;21.276;2024-03-06T16:12:08;100219.69;;;14.03;nan
46408;BME280;32110;45.724;21.276;2024-03-06T16:14:34;100227.34;;;14.05;nan
46408;BME280;32110;45.724;21.276;2024-03-06T16:16:59;100225.78;;;14.04;nan
46408;BME280;32110;45.724;21.276;2024-03-06T16:19:34;100233.75;;;14.09;nan
46408;BME280;32110;45.724;21.276;2024-03-06T16:22:01;100222.28;;;13.98;nan
46408;BME280;32110;45.724;21.276;2024-03-06T16:24:27;100221.63;;;13.86;nan
46408;BME280;32110;45.724;21.276;2024-03-06T16:26:54;100222.06;;;13.73;nan
46408;BME280;32110;45.724;21.276;2024-03-06T16:29:19;100240.06;;;13.76;nan
46408;BME280;32110;45.724;21.276;2024-03-06T16:31:45;100242.38;;;13.67;nan
46408;BME280;32110;45.724;21.276;2024-03-06T16:34:10;100239.59;;;13.57;nan
46408;BME280;32110;45.724;21.276;2024-03-06T16:36:37;100240.06;;;13.49;nan
46408;BME280;32110;45.724;21.276;2024-03-06T16:39:03;100232.03;;;13.38;nan
46408;BME280;32110;45.724;21.276;2024-03-06T16:41:30;100243.88;;;13.36;nan
46408;BME280;32110;45.724;21.276;2024-03-06T16:43:56;100243.00;;;13.30;nan
46408;BME280;32110;45.724;21.276;2024-03-06T16:46:21;100240.88;;;13.27;nan
46408;BME280;32110;45.724;21.276;2024-03-06T16:48:50;100251.34;;;13.22;nan
46408;BME280;32110;45.724;21.276;2024-03-06T16:51:19;100254.25;;;13.20;nan
46408;BME280;32110;45.724;21.276;2024-03-06T16:53:46;100252.25;;;13.11;nan
46408;BME280;32110;45.724;21.276;2024-03-06T16:56:12;100259.13;;;13.12;nan
46408;BME280;32110;45.724;21.276;2024-03-06T16:58:37;100228.34;;;12.79;nan
46408;BME280;32110;45.724;21.276;2024-03-06T17:01:03;100257.75;;;12.87;nan
46408;BME280;32110;45.724;21.276;2024-03-06T17:03:28;100267.31;;;12.88;nan
46408;BME280;32110;45.724;21.276;2024-03-06T17:05:54;100264.28;;;12.80;nan
46408;BME280;32110;45.724;21.276;2024-03-06T17:08:19;100253.56;;;12.69;nan
46408;BME280;32110;45.724;21.276;2024-03-06T17:10:45;100271.00;;;12.70;nan
46408;BME280;32110;45.724;21.276;2024-03-06T17:13:10;100261.09;;;12.61;nan
46408;BME280;32110;45.724;21.276;2024-03-06T17:15:36;100260.78;;;12.57;nan
46408;BME280;32110;45.724;21.276;2024-03-06T17:18:01;100251.31;;;12.44;nan
46408;BME280;32110;45.724;21.276;2024-03-06T17:20:27;100253.97;;;12.44;nan
46408;BME280;32110;45.724;21.276;2024-03-06T17:22:52;100258.53;;;12.49;nan
46408;BME280;32110;45.724;21.276;2024-03-06T17:25:18;100264.78;;;12.43;nan